sensor_id;sensor_type;location;lat;lon;timestamp;pressure;altitude;pressure_sealevel;temperature;humidity
27202;BME280;14717;46.924;15.474;2023-02-12T00:01:03;99351.13;;;0.58;81.95
27202;BME280;14717;46.924;15.474;2023-02-12T00:07:42;99336.56;;;0.45;83.24
27202;BME280;14717;46.924;15.474;2023-02-12T00:10:51;99331.31;;;0.64;81.18
27202;BME280;14717;46.924;15.474;2023-02-12T00:14:07;99343.53;;;0.75;81.59
27202;BME280;14717;46.924;15.474;2023-02-12T00:16:36;99343.16;;;0.57;81.76
27202;BME280;14717;46.924;15.474;2023-02-12T00:23:36;99340.06;;;0.60;81.56
27202;BME280;14717;46.924;15.474;2023-02-12T00:30:09;99357.47;;;0.44;83.97
27202;BME280;14717;46.924;15.474;2023-02-12T00:33:50;99347.13;;;0.54;82.83
27202;BME280;14717;46.924;15.474;2023-02-12T00:37:08;99353.47;;;0.61;82.37
27202;BME280;14717;46.924;15.474;2023-02-12T00:39:40;99354.75;;;0.65;82.32
27202;BME280;14717;46.924;15.474;2023-02-12T00:46:11;99345.38;;;0.68;82.44
27202;BME280;14717;46.924;15.474;2023-02-12T00:52:15;99371.06;;;0.65;81.69
27202;BME280;14717;46.924;15.474;2023-02-12T00:55:08;99366.25;;;0.67;81.78
27202;BME280;14717;46.924;15.474;2023-02-12T01:02:09;99371.50;;;0.69;82.02
27202;BME280;14717;46.924;15.474;2023-02-12T01:08:54;99390.38;;;0.56;82.99
27202;BME280;14717;46.924;15.474;2023-02-12T01:18:10;99387.75;;;0.62;82.32
27202;BME280;14717;46.924;15.474;2023-02-12T01:21:09;99371.94;;;0.72;81.62
27202;BME280;14717;46.924;15.474;2023-02-12T01:27:33;99375.34;;;0.74;82.40
27202;BME280;14717;46.924;15.474;2023-02-12T01:30:48;99386.91;;;0.62;81.79
27202;BME280;14717;46.924;15.474;2023-02-12T01:34:01;99384.38;;;0.40;83.57
27202;BME280;14717;46.924;15.474;2023-02-12T01:46:20;99392.97;;;0.43;83.41
27202;BME280;14717;46.924;15.474;2023-02-12T01:49:32;99395.97;;;0.48;83.60
27202;BME280;14717;46.924;15.474;2023-02-12T01:56:09;99377.53;;;0.29;84.15
27202;BME280;14717;46.924;15.474;2023-02-12T02:01:53;99371.38;;;0.21;85.06
27202;BME280;14717;46.924;15.474;2023-02-12T02:11:26;99365.94;;;0.00;87.73
27202;BME280;14717;46.924;15.474;2023-02-12T02:24:47;99376.38;;;0.17;87.09
27202;BME280;14717;46.924;15.474;2023-02-12T02:38:17;99378.63;;;0.14;87.30
27202;BME280;14717;46.924;15.474;2023-02-12T02:54:47;99373.09;;;0.22;86.21
27202;BME280;14717;46.924;15.474;2023-02-12T03:01:26;99408.59;;;0.20;86.01
27202;BME280;14717;46.924;15.474;2023-02-12T03:18:15;99387.84;;;0.34;86.55
27202;BME280;14717;46.924;15.474;2023-02-12T03:25:34;99403.13;;;0.35;86.83
27202;BME280;14717;46.924;15.474;2023-02-12T03:28:59;99410.22;;;0.36;86.72
27202;BME280;14717;46.924;15.474;2023-02-12T03:35:30;99419.44;;;0.35;86.72
27202;BME280;14717;46.924;15.474;2023-02-12T03:48:43;99436.75;;;0.34;87.53
27202;BME280;14717;46.924;15.474;2023-02-12T03:54:47;99428.72;;;0.26;88.08
27202;BME280;14717;46.924;15.474;2023-02-12T04:04:47;99437.22;;;0.23;88.33
27202;BME280;14717;46.924;15.474;2023-02-12T04:08:04;99429.75;;;0.25;88.38
27202;BME280;14717;46.924;15.474;2023-02-12T04:28:29;99450.34;;;0.19;86.09
27202;BME280;14717;46.924;15.474;2023-02-12T04:50:24;99459.81;;;-0.20;87.47
27202;BME280;14717;46.924;15.474;2023-02-12T04:53:27;99458.16;;;-0.21;87.01
27202;BME280;14717;46.924;15.474;2023-02-12T04:59:34;99463.75;;;-0.37;88.14
27202;BME280;14717;46.924;15.474;2023-02-12T05:02:26;99463.75;;;-0.37;87.44
27202;BME280;14717;46.924;15.474;2023-02-12T05:05:03;99471.59;;;-0.42;87.86
27202;BME280;14717;46.924;15.474;2023-02-12T05:07:54;99479.25;;;-0.45;88.04
27202;BME280;14717;46.924;15.474;2023-02-12T05:13:56;99491.53;;;-0.35;87.74
27202;BME280;14717;46.924;15.474;2023-02-12T05:16:48;99495.28;;;-0.36;87.16
27202;BME280;14717;46.924;15.474;2023-02-12T05:23:29;99501.00;;;-0.31;87.07
27202;BME280;14717;46.924;15.474;2023-02-12T05:26:32;99509.03;;;-0.37;87.10
27202;BME280;14717;46.924;15.474;2023-02-12T05:32:02;99505.84;;;-0.41;87.49
27202;BME280;14717;46.924;15.474;2023-02-12T05:37:39;99519.19;;;-0.53;88.04
27202;BME280;14717;46.924;15.474;2023-02-12T05:43:53;99536.50;;;-0.54;88.56
27202;BME280;14717;46.924;15.474;2023-02-12T05:46:45;99534.28;;;-0.37;88.24
27202;BME280;14717;46.924;15.474;2023-02-12T05:49:44;99544.78;;;-0.34;89.17
27202;BME280;14717;46.924;15.474;2023-02-12T05:52:33;99555.41;;;-0.24;89.71
27202;BME280;14717;46.924;15.474;2023-02-12T05:55:04;99558.66;;;-0.29;90.47
27202;BME280;14717;46.924;15.474;2023-02-12T05:58:06;99567.34;;;-0.33;90.91
27202;BME280;14717;46.924;15.474;2023-02-12T06:00:49;99564.84;;;-0.20;90.41
27202;BME280;14717;46.924;15.474;2023-02-12T06:03:42;99574.50;;;-0.18;90.01
27202;BME280;14717;46.924;15.474;2023-02-12T06:07:29;99580.66;;;-0.24;90.47
27202;BME280;14717;46.924;15.474;2023-02-12T06:13:28;99577.69;;;-0.14;90.18
27202;BME280;14717;46.924;15.474;2023-02-12T06:19:31;99589.63;;;-0.01;89.42
27202;BME280;14717;46.924;15.474;2023-02-12T06:22:26;99591.56;;;-0.09;89.00
27202;BME280;14717;46.924;15.474;2023-02-12T06:25:25;99585.50;;;0.03;89.09
27202;BME280;14717;46.924;15.474;2023-02-12T06:31:33;99600.13;;;0.02;89.10
27202;BME280;14717;46.924;15.474;2023-02-12T06:37:48;99609.78;;;0.19;88.17
27202;BME280;14717;46.924;15.474;2023-02-12T06:43:26;99623.66;;;0.24;87.79
27202;BME280;14717;46.924;15.474;2023-02-12T06:46:57;99628.06;;;0.25;87.77
27202;BME280;14717;46.924;15.474;2023-02-12T06:52:54;99623.38;;;0.47;86.88
27202;BME280;14717;46.924;15.474;2023-02-12T06:56:08;99619.38;;;0.43;87.67
27202;BME280;14717;46.924;15.474;2023-02-12T07:02:28;99626.88;;;0.42;88.36
27202;BME280;14717;46.924;15.474;2023-02-12T07:05:03;99636.31;;;0.45;88.24
27202;BME280;14717;46.924;15.474;2023-02-12T07:07:41;99635.59;;;0.51;88.96
27202;BME280;14717;46.924;15.474;2023-02-12T07:14:14;99645.16;;;0.62;89.47
27202;BME280;14717;46.924;15.474;2023-02-12T07:20:57;99655.81;;;0.92;87.97
27202;BME280;14717;46.924;15.474;2023-02-12T07:23:26;99668.88;;;0.96;87.16
27202;BME280;14717;46.924;15.474;2023-02-12T07:25:59;99666.25;;;1.17;87.41
27202;BME280;14717;46.924;15.474;2023-02-12T07:28:51;99675.13;;;1.26;85.67
27202;BME280;14717;46.924;15.474;2023-02-12T07:31:46;99668.44;;;1.28;84.63
27202;BME280;14717;46.924;15.474;2023-02-12T07:37:47;99676.22;;;1.45;84.69
27202;BME280;14717;46.924;15.474;2023-02-12T07:41:05;99682.56;;;1.31;84.15
27202;BME280;14717;46.924;15.474;2023-02-12T07:43:23;99677.28;;;1.30;85.53
27202;BME280;14717;46.924;15.474;2023-02-12T07:46:41;99666.59;;;1.28;85.02
27202;BME280;14717;46.924;15.474;2023-02-12T07:49:21;99667.88;;;1.32;85.23
27202;BME280;14717;46.924;15.474;2023-02-12T07:52:10;99670.69;;;1.39;85.46
27202;BME280;14717;46.924;15.474;2023-02-12T07:54:38;99669.34;;;1.49;85.14
27202;BME280;14717;46.924;15.474;2023-02-12T07:57:04;99680.97;;;1.58;83.76
27202;BME280;14717;46.924;15.474;2023-02-12T08:02:34;99684.28;;;1.74;82.78
27202;BME280;14717;46.924;15.474;2023-02-12T08:05:42;99681.06;;;1.85;82.69
27202;BME280;14717;46.924;15.474;2023-02-12T08:08:31;99683.94;;;1.98;81.20
27202;BME280;14717;46.924;15.474;2023-02-12T08:14:18;99687.56;;;2.25;81.39
27202;BME280;14717;46.924;15.474;2023-02-12T08:16:58;99689.56;;;2.38;80.15
27202;BME280;14717;46.924;15.474;2023-02-12T08:19:33;99679.22;;;2.33;79.78
27202;BME280;14717;46.924;15.474;2023-02-12T08:22:30;99675.22;;;2.29;79.48
27202;BME280;14717;46.924;15.474;2023-02-12T08:25:04;99680.78;;;2.42;78.91
27202;BME280;14717;46.924;15.474;2023-02-12T08:27:30;99662.59;;;2.49;78.68
27202;BME280;14717;46.924;15.474;2023-02-12T08:30:33;99667.38;;;2.74;78.88
27202;BME280;14717;46.924;15.474;2023-02-12T08:33:30;99665.88;;;2.99;78.42
27202;BME280;14717;46.924;15.474;2023-02-12T08:40:11;99687.41;;;3.21;74.79
27202;BME280;14717;46.924;15.474;2023-02-12T08:49:00;99688.63;;;3.52;73.61
27202;BME280;14717;46.924;15.474;2023-02-12T08:54:30;99696.47;;;3.75;72.82
27202;BME280;14717;46.924;15.474;2023-02-12T08:57:04;99678.06;;;3.89;72.89
27202;BME280;14717;46.924;15.474;2023-02-12T08:59:30;99683.13;;;4.18;71.72
27202;BME280;14717;46.924;15.474;2023-02-12T09:01:55;99684.84;;;4.32;67.83
27202;BME280;14717;46.924;15.474;2023-02-12T09:04:24;99679.81;;;4.55;66.94
27202;BME280;14717;46.924;15.474;2023-02-12T09:06:50;99685.28;;;4.55;67.38
27202;BME280;14717;46.924;15.474;2023-02-12T09:09:16;99689.91;;;4.48;66.23
27202;BME280;14717;46.924;15.474;2023-02-12T09:11:42;99681.47;;;4.81;65.50
27202;BME280;14717;46.924;15.474;2023-02-12T09:14:11;99699.16;;;5.05;64.13
27202;BME280;14717;46.924;15.474;2023-02-12T09:16:37;99698.69;;;5.14;63.37
27202;BME280;14717;46.924;15.474;2023-02-12T09:19:05;99708.16;;;5.24;63.46
27202;BME280;14717;46.924;15.474;2023-02-12T09:21:31;99703.91;;;5.35;60.90
27202;BME280;14717;46.924;15.474;2023-02-12T09:23:56;99713.00;;;5.22;61.87
27202;BME280;14717;46.924;15.474;2023-02-12T09:26:23;99713.03;;;5.16;62.19
27202;BME280;14717;46.924;15.474;2023-02-12T09:28:51;99719.56;;;5.15;61.47
27202;BME280;14717;46.924;15.474;2023-02-12T09:31:22;99715.97;;;5.21;61.45
27202;BME280;14717;46.924;15.474;2023-02-12T09:33:51;99714.88;;;5.35;63.76
27202;BME280;14717;46.924;15.474;2023-02-12T09:36:18;99729.81;;;5.39;63.01
27202;BME280;14717;46.924;15.474;2023-02-12T09:38:44;99735.97;;;5.41;64.46
27202;BME280;14717;46.924;15.474;2023-02-12T09:52:33;99734.03;;;6.47;59.67
27202;BME280;14717;46.924;15.474;2023-02-12T09:54:59;99726.03;;;6.70;59.60
27202;BME280;14717;46.924;15.474;2023-02-12T09:57:28;99723.50;;;6.93;59.22
27202;BME280;14717;46.924;15.474;2023-02-12T10:00:03;99728.44;;;7.09;55.18
27202;BME280;14717;46.924;15.474;2023-02-12T10:02:30;99730.59;;;7.24;54.55
27202;BME280;14717;46.924;15.474;2023-02-12T10:04:59;99726.97;;;7.30;52.77
27202;BME280;14717;46.924;15.474;2023-02-12T10:15:57;99729.34;;;7.98;50.47
27202;BME280;14717;46.924;15.474;2023-02-12T10:21:17;99723.78;;;8.51;47.07
27202;BME280;14717;46.924;15.474;2023-02-12T10:26:52;99723.63;;;8.87;47.09
27202;BME280;14717;46.924;15.474;2023-02-12T10:29:26;99725.34;;;8.99;46.79
27202;BME280;14717;46.924;15.474;2023-02-12T10:32:12;99724.88;;;9.14;47.34
27202;BME280;14717;46.924;15.474;2023-02-12T10:34:41;99720.94;;;9.21;47.26
27202;BME280;14717;46.924;15.474;2023-02-12T10:42:42;99715.41;;;9.44;46.90
27202;BME280;14717;46.924;15.474;2023-02-12T10:45:17;99713.59;;;9.49;46.70
27202;BME280;14717;46.924;15.474;2023-02-12T10:47:45;99725.00;;;9.41;46.64
27202;BME280;14717;46.924;15.474;2023-02-12T10:53:22;99710.94;;;9.77;46.88
27202;BME280;14717;46.924;15.474;2023-02-12T10:56:09;99708.16;;;9.88;46.66
27202;BME280;14717;46.924;15.474;2023-02-12T10:58:39;99715.94;;;10.14;47.15
27202;BME280;14717;46.924;15.474;2023-02-12T11:01:15;99701.66;;;10.17;46.15
27202;BME280;14717;46.924;15.474;2023-02-12T11:03:41;99698.09;;;10.33;45.85
27202;BME280;14717;46.924;15.474;2023-02-12T11:06:18;99700.66;;;10.51;45.99
27202;BME280;14717;46.924;15.474;2023-02-12T11:08:44;99700.78;;;10.72;45.83
27202;BME280;14717;46.924;15.474;2023-02-12T11:11:18;99693.91;;;10.74;45.86
27202;BME280;14717;46.924;15.474;2023-02-12T11:13:57;99691.59;;;10.83;45.79
27202;BME280;14717;46.924;15.474;2023-02-12T11:16:33;99678.03;;;10.81;45.49
27202;BME280;14717;46.924;15.474;2023-02-12T11:19:20;99683.19;;;10.94;45.22
27202;BME280;14717;46.924;15.474;2023-02-12T11:21:46;99680.59;;;11.04;45.66
27202;BME280;14717;46.924;15.474;2023-02-12T11:24:30;99679.19;;;11.18;44.76
27202;BME280;14717;46.924;15.474;2023-02-12T11:29:40;99675.16;;;11.09;45.96
27202;BME280;14717;46.924;15.474;2023-02-12T11:32:08;99674.72;;;11.17;46.46
27202;BME280;14717;46.924;15.474;2023-02-12T11:34:39;99675.84;;;11.48;46.64
27202;BME280;14717;46.924;15.474;2023-02-12T11:37:17;99672.91;;;11.76;45.84
27202;BME280;14717;46.924;15.474;2023-02-12T11:39:47;99672.75;;;11.66;47.16
27202;BME280;14717;46.924;15.474;2023-02-12T11:42:18;99675.19;;;11.63;46.68
27202;BME280;14717;46.924;15.474;2023-02-12T11:45:03;99669.00;;;11.93;46.53
27202;BME280;14717;46.924;15.474;2023-02-12T11:47:32;99667.25;;;12.09;46.93
27202;BME280;14717;46.924;15.474;2023-02-12T11:50:07;99666.41;;;12.08;45.78
27202;BME280;14717;46.924;15.474;2023-02-12T11:52:35;99657.47;;;12.23;46.59
27202;BME280;14717;46.924;15.474;2023-02-12T11:55:05;99659.38;;;12.01;45.90
27202;BME280;14717;46.924;15.474;2023-02-12T11:57:47;99663.50;;;11.77;46.75
27202;BME280;14717;46.924;15.474;2023-02-12T12:00:16;99671.44;;;11.36;47.40
27202;BME280;14717;46.924;15.474;2023-02-12T12:02:58;99656.47;;;11.48;47.48
27202;BME280;14717;46.924;15.474;2023-02-12T12:05:30;99651.34;;;11.57;47.12
27202;BME280;14717;46.924;15.474;2023-02-12T12:08:04;99645.94;;;11.88;47.39
27202;BME280;14717;46.924;15.474;2023-02-12T12:10:41;99654.19;;;11.83;46.83
27202;BME280;14717;46.924;15.474;2023-02-12T12:13:13;99650.38;;;11.89;47.15
27202;BME280;14717;46.924;15.474;2023-02-12T12:15:46;99641.84;;;12.17;46.69
27202;BME280;14717;46.924;15.474;2023-02-12T12:18:49;99631.19;;;12.56;46.01
27202;BME280;14717;46.924;15.474;2023-02-12T12:21:56;99633.06;;;12.77;45.36
27202;BME280;14717;46.924;15.474;2023-02-12T12:27:02;99628.28;;;12.41;44.92
27202;BME280;14717;46.924;15.474;2023-02-12T12:29:58;99627.75;;;12.18;44.73
27202;BME280;14717;46.924;15.474;2023-02-12T12:32:28;99622.34;;;12.07;45.46
27202;BME280;14717;46.924;15.474;2023-02-12T12:34:55;99616.19;;;12.00;44.84
27202;BME280;14717;46.924;15.474;2023-02-12T12:40:23;99609.03;;;12.30;45.04
27202;BME280;14717;46.924;15.474;2023-02-12T12:43:13;99605.13;;;12.52;45.13
27202;BME280;14717;46.924;15.474;2023-02-12T12:51:39;99604.59;;;12.86;43.38
27202;BME280;14717;46.924;15.474;2023-02-12T13:03:34;99586.03;;;12.87;43.78
27202;BME280;14717;46.924;15.474;2023-02-12T13:15:02;99576.56;;;12.83;43.30
27202;BME280;14717;46.924;15.474;2023-02-12T13:20:30;99580.72;;;13.17;43.06
27202;BME280;14717;46.924;15.474;2023-02-12T13:23:25;99581.41;;;12.97;42.70
27202;BME280;14717;46.924;15.474;2023-02-12T13:26:10;99572.34;;;13.12;42.95
27202;BME280;14717;46.924;15.474;2023-02-12T13:28:41;99573.00;;;12.87;42.38
27202;BME280;14717;46.924;15.474;2023-02-12T13:31:13;99582.84;;;12.74;43.05
27202;BME280;14717;46.924;15.474;2023-02-12T13:33:44;99575.97;;;12.50;43.66
27202;BME280;14717;46.924;15.474;2023-02-12T13:36:13;99576.66;;;12.67;43.41
27202;BME280;14717;46.924;15.474;2023-02-12T13:38:49;99578.13;;;12.74;43.42
27202;BME280;14717;46.924;15.474;2023-02-12T13:41:16;99589.59;;;12.82;42.82
27202;BME280;14717;46.924;15.474;2023-02-12T13:46:55;99568.84;;;12.85;43.39
27202;BME280;14717;46.924;15.474;2023-02-12T13:49:34;99574.41;;;12.90;43.35
27202;BME280;14717;46.924;15.474;2023-02-12T13:52:16;99571.00;;;12.83;42.46
27202;BME280;14717;46.924;15.474;2023-02-12T13:55:03;99562.94;;;12.81;42.76
27202;BME280;14717;46.924;15.474;2023-02-12T13:57:34;99575.41;;;12.79;42.87
27202;BME280;14717;46.924;15.474;2023-02-12T14:00:00;99578.59;;;12.66;42.56
27202;BME280;14717;46.924;15.474;2023-02-12T14:04:59;99568.50;;;12.55;43.22
27202;BME280;14717;46.924;15.474;2023-02-12T14:07:51;99578.03;;;12.64;43.30
27202;BME280;14717;46.924;15.474;2023-02-12T14:12:49;99583.06;;;12.67;43.54
27202;BME280;14717;46.924;15.474;2023-02-12T14:15:27;99577.53;;;12.67;42.94
27202;BME280;14717;46.924;15.474;2023-02-12T14:17:55;99572.44;;;12.59;43.07
27202;BME280;14717;46.924;15.474;2023-02-12T14:20:32;99564.78;;;12.40;44.27
27202;BME280;14717;46.924;15.474;2023-02-12T14:23:22;99573.63;;;12.37;44.34
27202;BME280;14717;46.924;15.474;2023-02-12T14:25:57;99568.66;;;12.39;44.04
27202;BME280;14717;46.924;15.474;2023-02-12T14:28:27;99571.69;;;12.37;43.87
27202;BME280;14717;46.924;15.474;2023-02-12T14:33:46;99578.00;;;12.07;44.16
27202;BME280;14717;46.924;15.474;2023-02-12T14:41:24;99580.38;;;12.20;44.92
27202;BME280;14717;46.924;15.474;2023-02-12T14:46:59;99587.88;;;12.19;44.73
27202;BME280;14717;46.924;15.474;2023-02-12T14:49:32;99588.63;;;12.15;43.40
27202;BME280;14717;46.924;15.474;2023-02-12T15:02:41;99587.13;;;11.81;45.22
27202;BME280;14717;46.924;15.474;2023-02-12T15:05:18;99599.88;;;11.82;45.85
27202;BME280;14717;46.924;15.474;2023-02-12T15:07:51;99596.34;;;11.65;46.32
27202;BME280;14717;46.924;15.474;2023-02-12T15:10:22;99591.25;;;11.57;47.14
27202;BME280;14717;46.924;15.474;2023-02-12T15:15:43;99590.44;;;11.41;47.20
27202;BME280;14717;46.924;15.474;2023-02-12T15:18:20;99592.97;;;11.42;47.92
27202;BME280;14717;46.924;15.474;2023-02-12T15:20:55;99604.78;;;11.54;47.18
27202;BME280;14717;46.924;15.474;2023-02-12T15:23:37;99601.19;;;11.53;47.30
27202;BME280;14717;46.924;15.474;2023-02-12T15:26:05;99607.53;;;11.54;46.96
27202;BME280;14717;46.924;15.474;2023-02-12T15:28:35;99615.22;;;11.47;47.47
27202;BME280;14717;46.924;15.474;2023-02-12T15:31:03;99611.72;;;11.40;47.89
27202;BME280;14717;46.924;15.474;2023-02-12T15:33:33;99611.41;;;11.37;47.53
27202;BME280;14717;46.924;15.474;2023-02-12T15:36:01;99610.81;;;11.35;47.54
27202;BME280;14717;46.924;15.474;2023-02-12T15:38:32;99616.78;;;11.27;48.00
27202;BME280;14717;46.924;15.474;2023-02-12T15:41:00;99611.19;;;11.22;48.11
27202;BME280;14717;46.924;15.474;2023-02-12T15:43:28;99618.69;;;11.05;48.90
27202;BME280;14717;46.924;15.474;2023-02-12T15:45:55;99624.53;;;10.92;49.48
27202;BME280;14717;46.924;15.474;2023-02-12T15:48:22;99634.69;;;10.87;49.07
27202;BME280;14717;46.924;15.474;2023-02-12T15:51:08;99629.16;;;10.70;49.80
27202;BME280;14717;46.924;15.474;2023-02-12T15:53:38;99637.53;;;10.75;49.92
27202;BME280;14717;46.924;15.474;2023-02-12T15:56:13;99634.53;;;10.77;49.77
27202;BME280;14717;46.924;15.474;2023-02-12T15:58:45;99642.47;;;10.73;49.82
27202;BME280;14717;46.924;15.474;2023-02-12T16:01:15;99647.16;;;10.57;50.25
27202;BME280;14717;46.924;15.474;2023-02-12T16:03:41;99651.31;;;10.43;51.18
27202;BME280;14717;46.924;15.474;2023-02-12T16:06:09;99651.59;;;10.30;51.71
27202;BME280;14717;46.924;15.474;2023-02-12T16:08:38;99662.38;;;10.15;51.64
27202;BME280;14717;46.924;15.474;2023-02-12T16:11:06;99662.44;;;9.92;52.49
27202;BME280;14717;46.924;15.474;2023-02-12T16:13:45;99672.91;;;9.68;53.77
27202;BME280;14717;46.924;15.474;2023-02-12T16:18:38;99673.22;;;9.32;54.79
27202;BME280;14717;46.924;15.474;2023-02-12T16:21:16;99682.06;;;9.11;55.86
27202;BME280;14717;46.924;15.474;2023-02-12T16:23:47;99689.75;;;8.98;56.05
27202;BME280;14717;46.924;15.474;2023-02-12T16:26:19;99694.69;;;9.07;56.35
27202;BME280;14717;46.924;15.474;2023-02-12T16:28:47;99692.75;;;9.08;56.20
27202;BME280;14717;46.924;15.474;2023-02-12T16:31:14;99690.94;;;9.13;56.37
27202;BME280;14717;46.924;15.474;2023-02-12T16:38:51;99716.41;;;8.34;59.09
27202;BME280;14717;46.924;15.474;2023-02-12T16:43:43;99718.88;;;8.06;60.12
27202;BME280;14717;46.924;15.474;2023-02-12T16:46:10;99722.34;;;8.02;60.04
27202;BME280;14717;46.924;15.474;2023-02-12T16:48:48;99720.50;;;7.78;60.78
27202;BME280;14717;46.924;15.474;2023-02-12T16:51:28;99723.97;;;7.74;61.09
27202;BME280;14717;46.924;15.474;2023-02-12T16:53:56;99727.16;;;7.71;61.32
27202;BME280;14717;46.924;15.474;2023-02-12T16:56:24;99739.22;;;7.70;60.28
27202;BME280;14717;46.924;15.474;2023-02-12T16:58:52;99740.31;;;7.69;61.73
27202;BME280;14717;46.924;15.474;2023-02-12T17:03:50;99753.56;;;7.36;61.55
27202;BME280;14717;46.924;15.474;2023-02-12T17:06:21;99749.34;;;7.10;62.90
27202;BME280;14717;46.924;15.474;2023-02-12T17:08:47;99754.97;;;6.97;63.08
27202;BME280;14717;46.924;15.474;2023-02-12T17:11:13;99761.34;;;6.91;63.58
27202;BME280;14717;46.924;15.474;2023-02-12T17:13:42;99770.53;;;6.78;63.91
27202;BME280;14717;46.924;15.474;2023-02-12T17:16:08;99775.19;;;6.78;64.20
27202;BME280;14717;46.924;15.474;2023-02-12T17:18:33;99778.66;;;6.67;64.42
27202;BME280;14717;46.924;15.474;2023-02-12T17:23:44;99787.72;;;6.31;66.24
27202;BME280;14717;46.924;15.474;2023-02-12T17:26:09;99784.47;;;6.03;66.06
27202;BME280;14717;46.924;15.474;2023-02-12T17:28:36;99790.47;;;5.87;67.74
27202;BME280;14717;46.924;15.474;2023-02-12T17:31:02;99800.81;;;5.79;68.61
27202;BME280;14717;46.924;15.474;2023-02-12T17:33:30;99796.19;;;5.79;68.02
27202;BME280;14717;46.924;15.474;2023-02-12T17:35:57;99796.59;;;5.70;67.85
27202;BME280;14717;46.924;15.474;2023-02-12T17:38:22;99800.81;;;5.72;68.20
27202;BME280;14717;46.924;15.474;2023-02-12T17:40:48;99799.75;;;5.67;67.88
27202;BME280;14717;46.924;15.474;2023-02-12T17:43:14;99808.22;;;5.65;68.81
27202;BME280;14717;46.924;15.474;2023-02-12T17:45:40;99807.34;;;5.65;68.91
27202;BME280;14717;46.924;15.474;2023-02-12T17:48:08;99798.94;;;5.53;68.35
27202;BME280;14717;46.924;15.474;2023-02-12T17:50:33;99805.28;;;5.54;70.58
27202;BME280;14717;46.924;15.474;2023-02-12T17:52:59;99803.41;;;5.29;70.34
27202;BME280;14717;46.924;15.474;2023-02-12T17:55:24;99805.50;;;5.14;70.30
27202;BME280;14717;46.924;15.474;2023-02-12T17:57:53;99810.56;;;5.10;70.65
27202;BME280;14717;46.924;15.474;2023-02-12T18:00:20;99817.53;;;5.00;70.55
27202;BME280;14717;46.924;15.474;2023-02-12T18:02:46;99815.41;;;5.02;70.77
27202;BME280;14717;46.924;15.474;2023-02-12T18:05:11;99819.00;;;5.03;70.66
27202;BME280;14717;46.924;15.474;2023-02-12T18:07:37;99811.19;;;4.74;71.69
27202;BME280;14717;46.924;15.474;2023-02-12T18:10:04;99811.81;;;4.69;72.64
27202;BME280;14717;46.924;15.474;2023-02-12T18:12:31;99814.56;;;4.76;72.26
27202;BME280;14717;46.924;15.474;2023-02-12T18:14:58;99820.00;;;4.69;71.83
27202;BME280;14717;46.924;15.474;2023-02-12T18:17:23;99823.63;;;4.70;72.50
27202;BME280;14717;46.924;15.474;2023-02-12T18:19:49;99819.38;;;4.67;72.39
27202;BME280;14717;46.924;15.474;2023-02-12T18:22:14;99821.69;;;4.64;72.62
27202;BME280;14717;46.924;15.474;2023-02-12T18:24:41;99817.25;;;4.44;72.86
27202;BME280;14717;46.924;15.474;2023-02-12T18:27:08;99821.06;;;3.96;75.49
27202;BME280;14717;46.924;15.474;2023-02-12T18:29:33;99833.91;;;4.09;75.26
27202;BME280;14717;46.924;15.474;2023-02-12T18:31:59;99834.19;;;4.20;73.96
27202;BME280;14717;46.924;15.474;2023-02-12T18:34:24;99828.88;;;4.12;73.79
27202;BME280;14717;46.924;15.474;2023-02-12T18:36:50;99827.69;;;3.81;75.75
27202;BME280;14717;46.924;15.474;2023-02-12T18:39:16;99827.31;;;3.90;75.91
27202;BME280;14717;46.924;15.474;2023-02-12T18:41:41;99829.88;;;3.98;74.64
27202;BME280;14717;46.924;15.474;2023-02-12T18:44:07;99833.03;;;3.95;74.13
27202;BME280;14717;46.924;15.474;2023-02-12T18:46:32;99832.38;;;3.60;75.12
27202;BME280;14717;46.924;15.474;2023-02-12T18:48:58;99832.00;;;3.29;76.65
27202;BME280;14717;46.924;15.474;2023-02-12T18:51:26;99837.28;;;3.10;78.31
27202;BME280;14717;46.924;15.474;2023-02-12T18:53:54;99840.19;;;3.29;78.07
27202;BME280;14717;46.924;15.474;2023-02-12T18:56:20;99837.34;;;3.43;76.87
27202;BME280;14717;46.924;15.474;2023-02-12T18:58:46;99847.13;;;3.59;76.43
27202;BME280;14717;46.924;15.474;2023-02-12T19:01:16;99850.09;;;3.64;76.17
27202;BME280;14717;46.924;15.474;2023-02-12T19:03:43;99851.34;;;3.34;76.83
27202;BME280;14717;46.924;15.474;2023-02-12T19:06:09;99858.28;;;3.09;78.42
27202;BME280;14717;46.924;15.474;2023-02-12T19:08:34;99851.44;;;2.99;78.69
27202;BME280;14717;46.924;15.474;2023-02-12T19:11:00;99861.53;;;2.98;79.18
27202;BME280;14717;46.924;15.474;2023-02-12T19:13:25;99856.59;;;3.08;78.57
27202;BME280;14717;46.924;15.474;2023-02-12T19:15:51;99868.34;;;3.09;78.48
27202;BME280;14717;46.924;15.474;2023-02-12T19:18:16;99867.75;;;3.13;78.55
27202;BME280;14717;46.924;15.474;2023-02-12T19:20:43;99867.91;;;3.05;77.67
27202;BME280;14717;46.924;15.474;2023-02-12T19:23:09;99877.97;;;3.05;78.79
27202;BME280;14717;46.924;15.474;2023-02-12T19:25:35;99869.72;;;2.98;78.15
27202;BME280;14717;46.924;15.474;2023-02-12T19:28:10;99872.84;;;2.95;78.40
27202;BME280;14717;46.924;15.474;2023-02-12T19:30:37;99882.09;;;2.95;78.20
27202;BME280;14717;46.924;15.474;2023-02-12T19:33:03;99882.16;;;2.80;78.87
27202;BME280;14717;46.924;15.474;2023-02-12T19:35:28;99877.34;;;2.82;79.40
27202;BME280;14717;46.924;15.474;2023-02-12T19:37:54;99883.16;;;2.79;78.57
27202;BME280;14717;46.924;15.474;2023-02-12T19:40:19;99885.53;;;2.61;78.12
27202;BME280;14717;46.924;15.474;2023-02-12T19:42:45;99887.38;;;2.40;79.57
27202;BME280;14717;46.924;15.474;2023-02-12T19:45:10;99886.97;;;2.43;79.93
27202;BME280;14717;46.924;15.474;2023-02-12T19:47:35;99899.84;;;2.49;79.69
27202;BME280;14717;46.924;15.474;2023-02-12T19:50:01;99895.41;;;2.48;79.73
27202;BME280;14717;46.924;15.474;2023-02-12T19:52:26;99894.22;;;2.36;79.75
27202;BME280;14717;46.924;15.474;2023-02-12T19:54:52;99899.06;;;2.20;79.98
27202;BME280;14717;46.924;15.474;2023-02-12T19:57:17;99893.84;;;2.04;82.30